Time,TemperatureF,DewpointF,PressureIn,WindDirection,WindDirectionDegrees,WindSpeedMPH,WindSpeedGustMPH,Humidity,HourlyPrecipIn,Conditions,Clouds,dailyrainin,SoftwareType,DateUTC
2013-08-22 00:01:00,64.4,59.1,29.44,SSW,202,0.0,0.0,83,0.00,,---,0.00,VWS V14.01,2013-08-22 04:01:00,
2013-08-22 00:02:00,64.4,59.5,29.44,SSW,202,0.0,0.0,84,0.00,,---,0.00,VWS V14.01,2013-08-22 04:02:00,
2013-08-22 00:06:00,64.4,59.5,29.44,SSW,202,0.0,0.0,84,0.00,,---,0.00,VWS V14.01,2013-08-22 04:06:00,
2013-08-22 00:07:00,64.2,59.3,29.44,SSW,202,0.0,0.0,84,0.00,,---,0.00,VWS V14.01,2013-08-22 04:07:00,
2013-08-22 00:08:00,64.2,59.3,29.44,SSW,202,2.0,2.7,84,0.00,,---,0.00,VWS V14.01,2013-08-22 04:08:00,
2013-08-22 00:13:00,64.0,59.1,29.44,SSW,202,1.3,2.2,84,0.00,,---,0.00,VWS V14.01,2013-08-22 04:13:00,
2013-08-22 00:19:00,63.9,58.9,29.44,SSW,202,1.3,2.0,84,0.00,,---,0.00,VWS V14.01,2013-08-22 04:19:00,
2013-08-22 00:25:00,63.7,59.1,29.44,SSW,202,2.5,2.5,85,0.00,,---,0.00,VWS V14.01,2013-08-22 04:25:00,
2013-08-22 00:31:00,63.5,58.6,29.44,SSW,202,1.3,1.3,84,0.00,,---,0.00,VWS V14.01,2013-08-22 04:31:00,
2013-08-22 00:36:00,63.5,58.9,29.44,SSW,202,0.0,2.7,85,0.00,,---,0.00,VWS V14.01,2013-08-22 04:36:00,
2013-08-22 00:41:00,63.3,58.7,29.44,SSW,202,0.0,2.0,85,0.00,,---,0.00,VWS V14.01,2013-08-22 04:41:00,
2013-08-22 00:46:00,63.3,58.7,29.44,SSW,202,0.0,0.0,85,0.00,,---,0.00,VWS V14.01,2013-08-22 04:46:00,
2013-08-22 00:52:00,63.0,58.4,29.44,SSW,202,0.0,0.0,85,0.00,,---,0.00,VWS V14.01,2013-08-22 04:52:00,
2013-08-22 00:57:00,63.0,58.4,29.44,SSW,202,0.0,1.3,85,0.00,,---,0.00,VWS V14.01,2013-08-22 04:57:00,
2013-08-22 01:03:00,62.8,58.5,29.44,SSW,202,0.0,0.0,86,0.00,,---,0.00,VWS V14.01,2013-08-22 05:03:00,
2013-08-22 01:09:00,62.6,58.4,29.44,SSW,202,0.0,0.0,86,0.00,,---,0.00,VWS V14.01,2013-08-22 05:09:00,
2013-08-22 01:14:00,62.4,58.2,29.44,SSW,202,0.0,0.0,86,0.00,,---,0.00,VWS V14.01,2013-08-22 05:14:00,
2013-08-22 01:20:00,62.4,58.5,29.44,SSW,202,0.0,0.0,87,0.00,,---,0.00,VWS V14.01,2013-08-22 05:20:00,
2013-08-22 01:25:00,62.4,58.8,29.44,SSW,202,0.0,0.0,88,0.00,,---,0.00,VWS V14.01,2013-08-22 05:25:00,
2013-08-22 01:31:00,62.4,59.1,29.44,SSW,202,0.0,0.0,89,0.00,,---,0.00,VWS V14.01,2013-08-22 05:31:00,
2013-08-22 01:37:00,62.2,58.7,29.44,SSW,202,0.0,0.0,88,0.00,,---,0.00,VWS V14.01,2013-08-22 05:37:00,
2013-08-22 01:43:00,62.2,58.7,29.44,SSW,202,0.0,0.0,88,0.00,,---,0.00,VWS V14.01,2013-08-22 05:43:00,
2013-08-22 01:49:00,62.1,58.5,29.44,SSW,202,1.1,1.3,88,0.00,,---,0.00,VWS V14.01,2013-08-22 05:49:00,
2013-08-22 01:55:00,61.9,58.0,29.44,SSW,202,0.0,0.0,87,0.00,,---,0.00,VWS V14.01,2013-08-22 05:55:00,
2013-08-22 02:01:00,61.5,57.6,29.44,SSW,202,1.6,1.6,87,0.00,,---,0.00,VWS V14.01,2013-08-22 06:01:00,
2013-08-22 02:07:00,61.3,57.4,29.47,SSW,202,0.0,0.0,87,0.00,,---,0.00,VWS V14.01,2013-08-22 06:07:00,
2013-08-22 02:13:00,61.2,57.3,29.47,SSW,202,0.0,0.0,87,0.00,,---,0.00,VWS V14.01,2013-08-22 06:13:00,
2013-08-22 02:19:00,61.0,57.4,29.47,SSW,202,0.0,0.0,88,0.00,,---,0.00,VWS V14.01,2013-08-22 06:19:00,
2013-08-22 02:25:00,61.0,57.4,29.44,SSW,202,0.0,0.0,88,0.00,,---,0.00,VWS V14.01,2013-08-22 06:25:00,
2013-08-22 02:30:00,61.0,57.7,29.44,SSW,202,0.0,1.6,89,0.00,,---,0.00,VWS V14.01,2013-08-22 06:30:00,
2013-08-22 02:36:00,60.6,57.0,29.44,SSW,202,0.0,0.0,88,0.00,,---,0.00,VWS V14.01,2013-08-22 06:36:00,
2013-08-22 02:41:00,60.6,57.4,29.44,SSW,202,0.0,0.0,89,0.00,,---,0.00,VWS V14.01,2013-08-22 06:41:00,
2013-08-22 02:47:00,60.4,57.2,29.44,SSW,202,0.0,0.0,89,0.00,,---,0.00,VWS V14.01,2013-08-22 06:47:00,
2013-08-22 02:52:00,60.3,57.0,29.44,SSW,202,0.0,0.0,89,0.00,,---,0.00,VWS V14.01,2013-08-22 06:52:00,
2013-08-22 02:59:00,60.1,56.8,29.44,SSW,202,0.0,0.0,89,0.00,,---,0.00,VWS V14.01,2013-08-22 06:59:00,
2013-08-22 03:05:00,60.1,56.8,29.44,SSW,202,0.0,0.0,89,0.00,,---,0.00,VWS V14.01,2013-08-22 07:05:00,
2013-08-22 03:10:00,60.1,56.8,29.44,SSW,202,1.3,1.3,89,0.00,,---,0.00,VWS V14.01,2013-08-22 07:10:00,
2013-08-22 03:16:00,59.7,56.5,29.44,SSW,202,1.6,1.6,89,0.00,,---,0.00,VWS V14.01,2013-08-22 07:16:00,
2013-08-22 03:21:00,59.7,56.5,29.44,SSW,202,0.9,0.9,89,0.00,,---,0.00,VWS V14.01,2013-08-22 07:21:00,
2013-08-22 03:26:00,59.7,56.5,29.44,SSW,202,0.0,0.0,89,0.00,,---,0.00,VWS V14.01,2013-08-22 07:26:00,
2013-08-22 03:31:00,59.9,57.0,29.44,SSW,202,2.0,2.0,90,0.00,,---,0.00,VWS V14.01,2013-08-22 07:31:00,
2013-08-22 03:37:00,59.7,56.8,29.44,SSW,202,0.0,0.0,90,0.00,,---,0.00,VWS V14.01,2013-08-22 07:37:00,
2013-08-22 03:42:00,59.5,56.3,29.44,SSW,202,0.0,0.0,89,0.00,,---,0.00,VWS V14.01,2013-08-22 07:42:00,
2013-08-22 03:48:00,59.4,56.4,29.44,SSW,202,0.0,0.0,90,0.00,,---,0.00,VWS V14.01,2013-08-22 07:48:00,
2013-08-22 03:53:00,59.4,56.4,29.44,SSW,202,1.1,2.0,90,0.00,,---,0.00,VWS V14.01,2013-08-22 07:53:00,
2013-08-22 03:58:00,59.2,56.0,29.44,SSW,202,0.0,0.0,89,0.00,,---,0.00,VWS V14.01,2013-08-22 07:58:00,
2013-08-22 04:04:00,59.0,55.8,29.44,SSW,202,0.0,0.0,89,0.00,,---,0.00,VWS V14.01,2013-08-22 08:04:00,
2013-08-22 04:09:00,58.8,55.9,29.44,SSW,202,0.0,0.0,90,0.00,,---,0.00,VWS V14.01,2013-08-22 08:09:00,
2013-08-22 04:14:00,58.8,56.2,29.44,SSW,202,0.0,0.0,91,0.00,,---,0.00,VWS V14.01,2013-08-22 08:14:00,
2013-08-22 04:19:00,58.8,56.2,29.44,SSW,202,0.0,0.0,91,0.00,,---,0.00,VWS V14.01,2013-08-22 08:19:00,
2013-08-22 04:25:00,58.5,55.5,29.44,SSW,202,0.0,0.0,90,0.00,,---,0.00,VWS V14.01,2013-08-22 08:25:00,
2013-08-22 04:31:00,58.3,55.4,29.44,SSW,202,0.0,0.0,90,0.00,,---,0.00,VWS V14.01,2013-08-22 08:31:00,
2013-08-22 04:36:00,58.3,55.4,29.44,SSW,202,0.0,0.0,90,0.00,,---,0.00,VWS V14.01,2013-08-22 08:36:00,
2013-08-22 04:41:00,58.1,55.2,29.44,SSW,202,0.0,0.0,90,0.00,,---,0.00,VWS V14.01,2013-08-22 08:41:00,
2013-08-22 04:46:00,57.9,55.0,29.44,SSW,202,0.0,0.0,90,0.00,,---,0.00,VWS V14.01,2013-08-22 08:46:00,
2013-08-22 04:52:00,57.7,54.8,29.44,SSW,202,0.0,0.0,90,0.00,,---,0.00,VWS V14.01,2013-08-22 08:52:00,
2013-08-22 04:58:00,57.7,54.8,29.44,SSW,202,0.9,1.3,90,0.00,,---,0.00,VWS V14.01,2013-08-22 08:58:00,
2013-08-22 05:04:00,57.6,54.7,29.44,SSW,202,0.0,0.0,90,0.00,,---,0.00,VWS V14.01,2013-08-22 09:04:00,
2013-08-22 05:10:00,57.4,54.5,29.41,SSW,202,0.0,0.0,90,0.00,,---,0.00,VWS V14.01,2013-08-22 09:10:00,
2013-08-22 05:15:00,57.4,54.5,29.41,SSW,202,0.0,0.0,90,0.00,,---,0.00,VWS V14.01,2013-08-22 09:15:00,
2013-08-22 05:21:00,57.2,54.3,29.44,SSW,202,0.0,0.0,90,0.00,,---,0.00,VWS V14.01,2013-08-22 09:21:00,
2013-08-22 05:26:00,57.2,54.3,29.44,SSW,202,0.0,0.0,90,0.00,,---,0.00,VWS V14.01,2013-08-22 09:26:00,
2013-08-22 05:31:00,57.0,54.4,29.44,SSW,202,0.0,0.0,91,0.00,,---,0.00,VWS V14.01,2013-08-22 09:31:00,
2013-08-22 05:36:00,57.0,54.4,29.41,SSW,202,0.0,0.0,91,0.00,,---,0.00,VWS V14.01,2013-08-22 09:36:00,
2013-08-22 05:41:00,56.8,54.2,29.41,SSW,202,2.0,2.2,91,0.00,,---,0.00,VWS V14.01,2013-08-22 09:41:00,
2013-08-22 05:47:00,56.7,53.8,29.41,SSW,202,0.0,0.0,90,0.00,,---,0.00,VWS V14.01,2013-08-22 09:47:00,
2013-08-22 05:53:00,56.7,54.1,29.44,SSW,202,0.0,0.0,91,0.00,,---,0.00,VWS V14.01,2013-08-22 09:53:00,
2013-08-22 05:58:00,56.7,54.1,29.44,SSW,202,0.0,0.0,91,0.00,,---,0.00,VWS V14.01,2013-08-22 09:58:00,
2013-08-22 06:04:00,56.5,53.9,29.44,SSW,202,0.0,0.0,91,0.00,,---,0.00,VWS V14.01,2013-08-22 10:04:00,
2013-08-22 06:09:00,56.5,53.9,29.41,SSW,202,0.9,0.9,91,0.00,,---,0.00,VWS V14.01,2013-08-22 10:09:00,
2013-08-22 06:15:00,56.5,53.9,29.41,SSW,202,2.0,2.0,91,0.00,,---,0.00,VWS V14.01,2013-08-22 10:15:00,
2013-08-22 06:21:00,56.7,54.4,29.41,SSW,202,0.0,0.0,92,0.00,,---,0.00,VWS V14.01,2013-08-22 10:21:00,
2013-08-22 06:26:00,56.7,54.4,29.41,SSW,202,0.0,0.0,92,0.00,,---,0.00,VWS V14.01,2013-08-22 10:26:00,
2013-08-22 06:32:00,56.7,54.4,29.41,SSW,202,0.0,0.0,92,0.00,,---,0.00,VWS V14.01,2013-08-22 10:32:00,
2013-08-22 06:37:00,56.8,54.5,29.41,SSW,202,0.0,0.0,92,0.00,,---,0.00,VWS V14.01,2013-08-22 10:37:00,
2013-08-22 06:42:00,57.0,55.0,29.41,SSW,202,0.0,0.0,93,0.00,,---,0.00,VWS V14.01,2013-08-22 10:42:00,
2013-08-22 06:47:00,57.0,55.0,29.41,SSW,202,0.0,0.0,93,0.00,,---,0.00,VWS V14.01,2013-08-22 10:47:00,
2013-08-22 18:04:00,81.7,59.5,29.23,NW,315,0.0,0.0,47,0.00,,---,0.00,VWS V14.01,2013-08-22 22:04:00,
2013-08-22 18:09:00,81.0,58.9,29.23,NW,315,0.0,0.0,47,0.00,,---,0.00,VWS V14.01,2013-08-22 22:09:00,
2013-08-22 18:15:00,80.4,58.4,29.23,NW,315,0.0,0.0,47,0.00,,---,0.00,VWS V14.01,2013-08-22 22:15:00,
2013-08-22 18:20:00,80.1,58.6,29.23,NW,315,0.0,0.0,48,0.00,,---,0.00,VWS V14.01,2013-08-22 22:20:00,
2013-08-22 18:26:00,79.5,58.7,29.23,NW,315,0.0,0.0,49,0.00,,---,0.00,VWS V14.01,2013-08-22 22:26:00,
2013-08-22 18:31:00,79.0,58.8,29.23,NW,315,0.0,0.0,50,0.00,,---,0.00,VWS V14.01,2013-08-22 22:31:00,
2013-08-22 18:36:00,78.4,58.8,29.23,NW,315,0.0,0.0,51,0.00,,---,0.00,VWS V14.01,2013-08-22 22:36:00,
2013-08-22 18:38:00,78.3,59.2,29.23,NW,315,0.0,0.0,52,0.00,,---,0.00,VWS V14.01,2013-08-22 22:38:00,
2013-08-22 18:43:00,77.9,58.9,29.23,NW,315,0.0,0.0,52,0.00,,---,0.00,VWS V14.01,2013-08-22 22:43:00,
2013-08-22 18:48:00,77.5,59.1,29.23,NW,315,0.0,0.0,53,0.00,,---,0.00,VWS V14.01,2013-08-22 22:48:00,
2013-08-22 18:53:00,77.2,59.3,29.23,NW,315,0.0,0.0,54,0.00,,---,0.00,VWS V14.01,2013-08-22 22:53:00,
2013-08-22 18:59:00,76.5,60.1,29.23,NW,315,0.0,0.0,57,0.00,,---,0.00,VWS V14.01,2013-08-22 22:59:00,
2013-08-22 19:04:00,76.1,60.8,29.23,NW,315,0.0,0.0,59,0.00,,---,0.00,VWS V14.01,2013-08-22 23:04:00,
2013-08-22 19:10:00,75.7,60.4,29.23,NW,315,0.0,0.0,59,0.00,,---,0.00,VWS V14.01,2013-08-22 23:10:00,
2013-08-22 19:15:00,75.4,60.5,29.23,NW,315,0.0,0.0,60,0.00,,---,0.00,VWS V14.01,2013-08-22 23:15:00,
2013-08-22 19:21:00,74.8,60.5,29.23,NW,315,0.0,0.0,61,0.00,,---,0.00,VWS V14.01,2013-08-22 23:21:00,
2013-08-22 19:26:00,74.7,60.8,29.23,NW,315,0.0,0.0,62,0.00,,---,0.00,VWS V14.01,2013-08-22 23:26:00,
2013-08-22 19:31:00,74.3,60.5,29.23,NW,315,0.0,0.0,62,0.00,,---,0.00,VWS V14.01,2013-08-22 23:31:00,
2013-08-22 19:37:00,73.9,59.7,29.23,NW,315,0.0,0.0,61,0.00,,---,0.00,VWS V14.01,2013-08-22 23:37:00,
2013-08-22 19:43:00,73.8,59.5,29.23,NW,315,0.0,0.0,61,0.00,,---,0.00,VWS V14.01,2013-08-22 23:43:00,
2013-08-22 19:48:00,73.6,59.3,29.23,NW,315,0.0,0.0,61,0.00,,---,0.00,VWS V14.01,2013-08-22 23:48:00,
2013-08-22 19:53:00,73.4,59.6,29.23,NW,315,0.0,0.0,62,0.00,,---,0.00,VWS V14.01,2013-08-22 23:53:00,
2013-08-22 19:58:00,73.2,59.9,29.23,NW,315,0.0,0.0,63,0.00,,---,0.00,VWS V14.01,2013-08-22 23:58:00,
2013-08-22 20:04:00,72.9,59.1,29.23,NW,315,0.0,0.0,62,0.00,,---,0.00,VWS V14.01,2013-08-23 00:04:00,
2013-08-22 20:09:00,72.7,59.8,29.23,NW,315,0.0,0.0,64,0.00,,---,0.00,VWS V14.01,2013-08-23 00:09:00,
2013-08-22 20:14:00,72.5,59.6,29.23,NW,315,0.0,0.0,64,0.00,,---,0.00,VWS V14.01,2013-08-23 00:14:00,
2013-08-22 20:19:00,72.1,59.7,29.23,WNW,292,1.1,2.5,65,0.00,,---,0.00,VWS V14.01,2013-08-23 00:19:00,
2013-08-22 20:25:00,72.0,60.0,29.23,WNW,292,0.0,0.9,66,0.00,,---,0.00,VWS V14.01,2013-08-23 00:25:00,
2013-08-22 20:31:00,71.6,59.7,29.23,WNW,292,0.0,0.0,66,0.00,,---,0.00,VWS V14.01,2013-08-23 00:31:00,
2013-08-22 20:36:00,71.4,59.9,29.23,WNW,292,2.0,2.5,67,0.00,,---,0.00,VWS V14.01,2013-08-23 00:36:00,
2013-08-22 20:41:00,71.2,60.2,29.23,WNW,292,0.0,1.1,68,0.00,,---,0.00,VWS V14.01,2013-08-23 00:41:00,
2013-08-22 20:46:00,71.1,60.0,29.23,WNW,292,0.0,0.0,68,0.00,,---,0.00,VWS V14.01,2013-08-23 00:46:00,
2013-08-22 20:51:00,70.9,60.2,29.23,WNW,292,0.0,1.1,69,0.00,,---,0.00,VWS V14.01,2013-08-23 00:51:00,
2013-08-22 20:56:00,70.7,60.0,29.23,WNW,292,0.0,0.0,69,0.00,,---,0.00,VWS V14.01,2013-08-23 00:56:00,
2013-08-22 21:01:00,70.7,60.0,29.23,WNW,292,0.0,0.0,69,0.00,,---,0.00,VWS V14.01,2013-08-23 01:01:00,
2013-08-22 21:07:00,70.5,59.9,29.23,WNW,292,0.0,0.0,69,0.00,,---,0.00,VWS V14.01,2013-08-23 01:07:00,
2013-08-22 21:12:00,70.5,60.3,29.23,WNW,292,0.0,0.0,70,0.00,,---,0.00,VWS V14.01,2013-08-23 01:12:00,
2013-08-22 21:17:00,70.5,60.7,29.23,WNW,292,0.9,3.1,71,0.00,,---,0.00,VWS V14.01,2013-08-23 01:17:00,
2013-08-22 21:22:00,70.3,60.5,29.23,WNW,292,0.0,0.0,71,0.00,,---,0.00,VWS V14.01,2013-08-23 01:22:00,
2013-08-22 21:28:00,70.3,60.5,29.23,WNW,292,0.0,0.0,71,0.00,,---,0.00,VWS V14.01,2013-08-23 01:28:00,
2013-08-22 21:33:00,70.3,60.5,29.23,WNW,292,2.0,2.0,71,0.00,,---,0.00,VWS V14.01,2013-08-23 01:33:00,
2013-08-22 21:39:00,70.2,60.7,29.23,WNW,292,0.0,0.0,72,0.00,,---,0.00,VWS V14.01,2013-08-23 01:39:00,
2013-08-22 21:45:00,70.2,60.7,29.23,WNW,292,0.0,0.0,72,0.00,,---,0.00,VWS V14.01,2013-08-23 01:45:00,
2013-08-22 21:51:00,70.0,60.5,29.23,WNW,292,0.0,0.0,72,0.00,,---,0.00,VWS V14.01,2013-08-23 01:51:00,
2013-08-22 21:56:00,70.0,60.9,29.23,WNW,292,0.0,0.0,73,0.00,,---,0.00,VWS V14.01,2013-08-23 01:56:00,
2013-08-22 22:03:00,70.0,61.3,29.23,WNW,292,2.7,2.9,74,0.00,,---,0.00,VWS V14.01,2013-08-23 02:03:00,
2013-08-22 22:08:00,70.0,60.9,29.26,WNW,292,2.0,2.0,73,0.00,,---,0.00,VWS V14.01,2013-08-23 02:08:00,
2013-08-22 22:14:00,70.0,61.3,29.26,WNW,292,1.3,2.0,74,0.00,,---,0.00,VWS V14.01,2013-08-23 02:14:00,
2013-08-22 22:20:00,69.8,61.2,29.26,WNW,292,1.6,2.0,74,0.00,,---,0.00,VWS V14.01,2013-08-23 02:20:00,
2013-08-22 22:26:00,70.2,60.7,29.23,WNW,292,2.7,2.7,72,0.00,,---,0.00,VWS V14.01,2013-08-23 02:26:00,
2013-08-22 22:31:00,70.3,60.9,29.23,WNW,292,1.3,1.3,72,0.00,,---,0.00,VWS V14.01,2013-08-23 02:31:00,
2013-08-22 22:36:00,70.7,60.8,29.23,SW,225,2.5,2.5,71,0.00,,---,0.00,VWS V14.01,2013-08-23 02:36:00,
2013-08-22 22:41:00,70.5,60.7,29.23,SW,225,0.0,0.0,71,0.00,,---,0.00,VWS V14.01,2013-08-23 02:41:00,
2013-08-22 22:46:00,70.7,60.8,29.23,North,0,1.6,2.5,71,0.00,,---,0.00,VWS V14.01,2013-08-23 02:46:00,
2013-08-22 22:52:00,70.9,61.0,29.26,SW,225,1.6,1.6,71,0.00,,---,0.00,VWS V14.01,2013-08-23 02:52:00,
2013-08-22 22:58:00,70.7,60.8,29.26,SW,225,0.0,0.0,71,0.00,,---,0.00,VWS V14.01,2013-08-23 02:58:00,
2013-08-22 23:03:00,70.7,60.5,29.26,ESE,112,0.0,0.0,70,0.00,,---,0.00,VWS V14.01,2013-08-23 03:03:00,
2013-08-22 23:09:00,70.7,60.5,29.23,WNW,292,0.0,1.3,70,0.00,,---,0.00,VWS V14.01,2013-08-23 03:09:00,
2013-08-22 23:14:00,70.5,60.3,29.23,West,270,2.0,2.0,70,0.00,,---,0.00,VWS V14.01,2013-08-23 03:14:00,
2013-08-22 23:19:00,70.7,60.5,29.23,WSW,248,1.3,2.0,70,0.00,,---,0.00,VWS V14.01,2013-08-23 03:19:00,
2013-08-22 23:25:00,70.7,60.0,29.23,SW,225,1.3,1.3,69,0.00,,---,0.00,VWS V14.01,2013-08-23 03:25:00,
2013-08-22 23:30:00,70.7,60.5,29.23,SW,225,0.0,0.0,70,0.00,,---,0.00,VWS V14.01,2013-08-23 03:30:00,
2013-08-22 23:35:00,70.7,60.5,29.23,SW,225,1.3,2.0,70,0.00,,---,0.00,VWS V14.01,2013-08-23 03:35:00,
2013-08-22 23:41:00,70.7,60.0,29.26,SW,225,2.0,2.5,69,0.00,,---,0.00,VWS V14.01,2013-08-23 03:41:00,
2013-08-22 23:46:00,70.5,59.9,29.26,SW,225,0.0,2.2,69,0.00,,---,0.00,VWS V14.01,2013-08-23 03:46:00,
2013-08-22 23:51:00,70.9,59.8,29.26,SW,225,0.0,0.0,68,0.00,,---,0.00,VWS V14.01,2013-08-23 03:51:00,
2013-08-22 23:56:00,71.2,60.2,29.23,WNW,292,0.0,0.9,68,0.00,,---,0.00,VWS V14.01,2013-08-23 03:56:00,